Isla Saona, Dominican Republic
Current Conditions -  °F | °C
As of 3:00 PM on Friday 24 Oct 2014 (Local Time) from MDPC Reporting Station
Scattered Clouds Scattered Clouds  
Wind Chill: 88°   Ceiling: Unl
Heat Index: 100°   Visibility: 6mi
Dew Point: 77°   Wind: 6mph
Humidity: 70%   Direction: 190°S
Pressure: 29.85"   Gusts: NA
Location:  18.09°N, 67.89°W
Report Text: MDPC 241900Z 19005KT 9999 SCT023 SCT300 31/25 Q1011
Loading
Personal Weather Stations






























Interactive Weather Map
Tropical Storm Tracking
New forecast layout! Learn more

10-Day Weather Forecast

Advertisements
Track Severe Weather on mobile